Wetterdaten: Woche 13.07.09 - 19.07.09 (KW29)
Datum Zeit Temperatur Luftfeuchte Luftdruck Niederschlag Wind Richtung Sonnenschein Solar Taupunkt Windchill Windben
13.07.2009 00:00 17.9 C 88 % 1013.5 hPa 0.0 l/m 0.8 km/h (0 Bft) S-SO 0.00 h 0 W/m 15.9 C 17.9 C 1.8 km/h (1 Bft)
13.07.2009 01:00 17.3 C 92 % 1013.6 hPa 0.0 l/m 2.5 km/h (1 Bft) O-SO 0.00 h 0 W/m 16.0 C 17.3 C 3.9 km/h (1 Bft)
13.07.2009 02:00 17.0 C 94 % 1013.7 hPa 0.0 l/m 1.3 km/h (1 Bft) O-SO 0.00 h 0 W/m 16.1 C 17.0 C 2.6 km/h (1 Bft)
13.07.2009 03:00 16.8 C 95 % 1013.6 hPa 0.0 l/m 1.2 km/h (1 Bft) O-SO 0.00 h 0 W/m 16.0 C 16.8 C 2.6 km/h (1 Bft)
13.07.2009 04:00 16.7 C 96 % 1013.6 hPa 0.0 l/m 0.2 km/h (0 Bft) O-SO 0.00 h 0 W/m 16.1 C 16.7 C 0.7 km/h (0 Bft)
13.07.2009 05:00 16.7 C 97 % 1013.7 hPa 0.0 l/m 2.1 km/h (1 Bft) O-SO 0.00 h 0 W/m 16.2 C 16.7 C 3.8 km/h (1 Bft)
13.07.2009 06:00 16.9 C 97 % 1013.7 hPa 0.2 l/m 2.0 km/h (1 Bft) O-SO 0.00 h 36 W/m 16.5 C 16.9 C 3.6 km/h (1 Bft)
13.07.2009 07:00 17.4 C 97 % 1013.7 hPa 0.0 l/m 1.5 km/h (1 Bft) O-SO 0.03 h 109 W/m 16.9 C 17.4 C 3.2 km/h (1 Bft)
13.07.2009 08:00 18.6 C 94 % 1014.1 hPa 0.0 l/m 0.4 km/h (0 Bft) O 0.15 h 199 W/m 17.6 C 18.6 C 1.4 km/h (1 Bft)
13.07.2009 09:00 21.5 C 82 % 1014.0 hPa 0.0 l/m 1.3 km/h (1 Bft) NW 1.00 h 471 W/m 18.2 C 21.5 C 3.2 km/h (1 Bft)
13.07.2009 10:00 22.8 C 76 % 1013.6 hPa 0.0 l/m 1.6 km/h (1 Bft) W-NW 0.48 h 424 W/m 18.3 C 22.8 C 3.6 km/h (1 Bft)
13.07.2009 11:00 23.9 C 72 % 1013.5 hPa 0.0 l/m 1.9 km/h (1 Bft) NW 0.40 h 410 W/m 18.4 C 23.9 C 3.6 km/h (1 Bft)
13.07.2009 12:00 23.8 C 73 % 1013.3 hPa 0.0 l/m 0.4 km/h (0 Bft) O 0.18 h 275 W/m 18.6 C 23.8 C 1.2 km/h (1 Bft)
13.07.2009 13:00 25.3 C 64 % 1012.8 hPa 0.0 l/m 1.7 km/h (1 Bft) N 0.98 h 603 W/m 18.0 C 25.3 C 3.8 km/h (1 Bft)
13.07.2009 14:00 26.3 C 63 % 1012.1 hPa 0.0 l/m 2.5 km/h (1 Bft) N-NO 0.72 h 600 W/m 18.8 C 26.3 C 5.7 km/h (1 Bft)
13.07.2009 15:00 27.0 C 60 % 1011.7 hPa 0.0 l/m 3.2 km/h (1 Bft) O-SO 0.73 h 624 W/m 18.6 C 27.0 C 6.4 km/h (2 Bft)
13.07.2009 16:00 26.9 C 59 % 1011.1 hPa 0.0 l/m 5.7 km/h (1 Bft) O-SO 0.57 h 431 W/m 18.1 C 26.9 C 9.3 km/h (2 Bft)
13.07.2009 17:00 26.6 C 59 % 1010.5 hPa 0.0 l/m 3.4 km/h (1 Bft) O 0.15 h 266 W/m 17.9 C 26.6 C 6.5 km/h (2 Bft)
13.07.2009 18:00 26.7 C 58 % 1010.2 hPa 0.0 l/m 1.9 km/h (1 Bft) N-NO 0.27 h 224 W/m 17.8 C 26.7 C 4.6 km/h (1 Bft)
13.07.2009 19:00 26.7 C 59 % 1010.0 hPa 0.0 l/m 1.7 km/h (1 Bft) O 0.37 h 166 W/m 18.1 C 26.7 C 4.5 km/h (1 Bft)
13.07.2009 20:00 25.7 C 63 % 1010.1 hPa 0.0 l/m 0.9 km/h (0 Bft) O-NO 0.00 h 21 W/m 18.0 C 25.7 C 3.4 km/h (1 Bft)
13.07.2009 21:00 24.4 C 67 % 1010.4 hPa 0.0 l/m 0.7 km/h (0 Bft) O 0.00 h 5 W/m 17.8 C 24.4 C 2.1 km/h (1 Bft)
13.07.2009 22:00 22.8 C 74 % 1010.7 hPa 0.0 l/m 0.4 km/h (0 Bft) SO 0.00 h 0 W/m 18.0 C 22.8 C 1.0 km/h (0 Bft)
13.07.2009 23:00 21.1 C 81 % 1010.5 hPa 0.0 l/m 3.4 km/h (1 Bft) SO 0.00 h 0 W/m 17.8 C 21.1 C 4.8 km/h (1 Bft)
14.07.2009 00:00 19.9 C 86 % 1009.9 hPa 0.0 l/m 0.7 km/h (0 Bft) SO 0.00 h 0 W/m 17.5 C 19.9 C 1.4 km/h (1 Bft)
14.07.2009 01:00 19.1 C 89 % 1009.8 hPa 0.0 l/m 0.3 km/h (0 Bft) SO 0.00 h 0 W/m 17.2 C 19.1 C 1.0 km/h (0 Bft)
14.07.2009 02:00 18.6 C 92 % 1010.1 hPa 0.0 l/m 2.0 km/h (1 Bft) SO 0.00 h 0 W/m 17.3 C 18.6 C 3.3 km/h (1 Bft)
14.07.2009 03:00 18.4 C 93 % 1010.3 hPa 0.0 l/m 0.3 km/h (0 Bft) O-SO 0.00 h 0 W/m 17.3 C 18.4 C 1.0 km/h (0 Bft)
14.07.2009 04:00 18.2 C 93 % 1010.9 hPa 0.0 l/m 0.3 km/h (0 Bft) O-SO 0.00 h 0 W/m 17.1 C 18.2 C 1.1 km/h (1 Bft)
14.07.2009 05:00 18.1 C 94 % 1011.9 hPa 0.0 l/m 0.5 km/h (0 Bft) O-SO 0.00 h 5 W/m 17.1 C 18.1 C 1.7 km/h (1 Bft)
14.07.2009 06:00 18.3 C 95 % 1013.2 hPa 0.0 l/m 2.0 km/h (1 Bft) O-SO 0.00 h 18 W/m 17.5 C 18.3 C 3.6 km/h (1 Bft)
14.07.2009 07:00 18.9 C 94 % 1013.3 hPa 0.0 l/m 3.4 km/h (1 Bft) W-SW 0.10 h 75 W/m 17.9 C 18.9 C 6.4 km/h (2 Bft)
14.07.2009 08:00 21.6 C 84 % 1013.7 hPa 0.0 l/m 2.7 km/h (1 Bft) W-SW 0.73 h 309 W/m 18.8 C 21.6 C 5.9 km/h (2 Bft)
14.07.2009 09:00 23.6 C 72 % 1014.1 hPa 0.0 l/m 2.5 km/h (1 Bft) W-SW 0.82 h 430 W/m 18.3 C 23.6 C 5.4 km/h (1 Bft)
14.07.2009 10:00 24.4 C 70 % 1014.1 hPa 0.0 l/m 2.2 km/h (1 Bft) O-SO 0.62 h 481 W/m 18.5 C 24.4 C 4.8 km/h (1 Bft)
14.07.2009 11:00 24.5 C 68 % 1013.6 hPa 0.0 l/m 1.9 km/h (1 Bft) O-SO 0.03 h 329 W/m 18.3 C 24.5 C 4.3 km/h (1 Bft)
14.07.2009 12:00 25.9 C 65 % 1013.3 hPa 0.0 l/m 2.2 km/h (1 Bft) O-SO 0.63 h 740 W/m 18.9 C 25.9 C 4.8 km/h (1 Bft)
14.07.2009 13:00 27.1 C 59 % 1012.5 hPa 0.0 l/m 3.8 km/h (1 Bft) O-SO 0.83 h 772 W/m 18.5 C 27.1 C 7.0 km/h (2 Bft)
14.07.2009 14:00 28.2 C 56 % 1012.2 hPa 0.0 l/m 2.7 km/h (1 Bft) W-NW 0.78 h 713 W/m 18.6 C 28.2 C 5.1 km/h (1 Bft)
14.07.2009 15:00 27.4 C 56 % 1011.9 hPa 0.0 l/m 3.0 km/h (1 Bft) N-NO 0.07 h 327 W/m 17.9 C 27.4 C 5.9 km/h (2 Bft)
14.07.2009 16:00 27.5 C 52 % 1011.8 hPa 0.0 l/m 1.4 km/h (1 Bft) O 0.50 h 417 W/m 16.9 C 27.5 C 3.6 km/h (1 Bft)
14.07.2009 17:00 27.7 C 55 % 1011.3 hPa 0.0 l/m 3.9 km/h (1 Bft) O-SO 0.08 h 219 W/m 17.8 C 27.7 C 6.4 km/h (2 Bft)
14.07.2009 18:00 27.3 C 57 % 1011.2 hPa 0.0 l/m 4.9 km/h (1 Bft) O-SO 0.68 h 314 W/m 18.1 C 27.3 C 8.2 km/h (2 Bft)
14.07.2009 19:00 26.9 C 58 % 1011.1 hPa 0.0 l/m 1.8 km/h (1 Bft) O-SO 0.13 h 86 W/m 18.0 C 26.9 C 4.5 km/h (1 Bft)
14.07.2009 20:00 25.6 C 61 % 1011.0 hPa 0.0 l/m 0.2 km/h (0 Bft) NO 0.00 h 20 W/m 17.6 C 25.6 C 1.2 km/h (1 Bft)
14.07.2009 21:00 24.3 C 68 % 1010.7 hPa 0.2 l/m 4.5 km/h (1 Bft) W 0.00 h 5 W/m 18.0 C 24.3 C 7.9 km/h (2 Bft)
14.07.2009 22:00 21.3 C 87 % 1012.7 hPa 16.0 l/m 5.6 km/h (1 Bft) NW 0.00 h 0 W/m 19.1 C 21.3 C 10.4 km/h (2 Bft)
14.07.2009 23:00 20.1 C 94 % 1014.2 hPa 6.8 l/m 4.1 km/h (1 Bft) W-NW 0.00 h 0 W/m 19.2 C 20.1 C 6.8 km/h (2 Bft)
15.07.2009 00:00 19.7 C 97 % 1014.0 hPa 1.0 l/m 2.4 km/h (1 Bft) W 0.00 h 0 W/m 19.1 C 19.7 C 4.4 km/h (1 Bft)
15.07.2009 01:00 19.4 C 97 % 1014.4 hPa 1.4 l/m 1.4 km/h (1 Bft) W-NW 0.00 h 0 W/m 19.0 C 19.4 C 2.9 km/h (1 Bft)
15.07.2009 02:00 19.0 C 98 % 1016.0 hPa 6.6 l/m 7.0 km/h (2 Bft) N-NW 0.00 h 0 W/m 18.7 C 19.0 C 11.6 km/h (2 Bft)
15.07.2009 03:00 17.6 C 98 % 1016.2 hPa 5.0 l/m 2.1 km/h (1 Bft) O-SO 0.00 h 0 W/m 17.2 C 17.6 C 4.3 km/h (1 Bft)
15.07.2009 04:00 17.4 C 99 % 1016.4 hPa 5.6 l/m 2.3 km/h (1 Bft) O-SO 0.00 h 0 W/m 17.2 C 17.4 C 3.9 km/h (1 Bft)
15.07.2009 05:00 17.5 C 99 % 1016.9 hPa 7.0 l/m 2.1 km/h (1 Bft) O-SO 0.00 h 0 W/m 17.3 C 17.5 C 3.8 km/h (1 Bft)
15.07.2009 06:00 17.3 C 99 % 1017.7 hPa 3.8 l/m 0.4 km/h (0 Bft) O-SO 0.00 h 7 W/m 17.2 C 17.3 C 1.3 km/h (1 Bft)
15.07.2009 07:00 17.4 C 100 % 1018.7 hPa 1.8 l/m 1.7 km/h (1 Bft) O-SO 0.00 h 19 W/m 17.4 C 17.4 C 3.2 km/h (1 Bft)
15.07.2009 08:00 17.1 C 100 % 1018.6 hPa 1.0 l/m 0.2 km/h (0 Bft) O-SO 0.00 h 12 W/m 17.1 C 17.1 C 1.0 km/h (0 Bft)
15.07.2009 09:00 17.2 C 100 % 1019.0 hPa 0.2 l/m 0.4 km/h (0 Bft) O-SO 0.00 h 67 W/m 17.2 C 17.2 C 1.7 km/h (1 Bft)
15.07.2009 10:00 17.8 C 100 % 1019.3 hPa 0.4 l/m 0.4 km/h (0 Bft) O-SO 0.00 h 149 W/m 17.8 C 17.8 C 1.3 km/h (1 Bft)
15.07.2009 11:00 19.1 C 100 % 1019.1 hPa 0.0 l/m 0.9 km/h (0 Bft) N 0.03 h 312 W/m 19.1 C 19.1 C 2.3 km/h (1 Bft)
15.07.2009 12:00 20.9 C 92 % 1019.1 hPa 0.0 l/m 1.2 km/h (1 Bft) N-NO 0.65 h 614 W/m 19.6 C 20.9 C 3.2 km/h (1 Bft)
15.07.2009 13:00 22.0 C 84 % 1019.0 hPa 0.0 l/m 1.3 km/h (1 Bft) N-NO 0.35 h 482 W/m 19.1 C 22.0 C 3.4 km/h (1 Bft)
15.07.2009 14:00 23.1 C 78 % 1018.7 hPa 0.0 l/m 2.3 km/h (1 Bft) O-SO 0.35 h 543 W/m 19.0 C 23.1 C 4.9 km/h (1 Bft)
15.07.2009 15:00 23.8 C 74 % 1018.6 hPa 0.0 l/m 2.1 km/h (1 Bft) O-SO 0.43 h 428 W/m 18.9 C 23.8 C 4.4 km/h (1 Bft)
15.07.2009 16:00 24.2 C 73 % 1018.5 hPa 0.0 l/m 1.0 km/h (0 Bft) NO 0.33 h 335 W/m 18.9 C 24.2 C 3.0 km/h (1 Bft)
15.07.2009 17:00 24.2 C 74 % 1018.6 hPa 0.0 l/m 0.7 km/h (0 Bft) N 0.00 h 131 W/m 19.3 C 24.2 C 2.2 km/h (1 Bft)
15.07.2009 18:00 24.1 C 76 % 1018.7 hPa 0.0 l/m 1.5 km/h (1 Bft) NW 0.57 h 250 W/m 19.6 C 24.1 C 3.2 km/h (1 Bft)
15.07.2009 19:00 25.5 C 68 % 1018.6 hPa 0.0 l/m 1.0 km/h (0 Bft) W 0.68 h 172 W/m 19.0 C 25.5 C 2.1 km/h (1 Bft)
15.07.2009 20:00 24.8 C 71 % 1018.8 hPa 0.0 l/m 0.0 km/h (0 Bft) N 0.05 h 46 W/m 19.1 C 24.8 C 0.1 km/h (0 Bft)
15.07.2009 21:00 23.2 C 79 % 1019.3 hPa 0.0 l/m 0.9 km/h (0 Bft) O-SO 0.13 h 12 W/m 19.3 C 23.2 C 1.6 km/h (1 Bft)
15.07.2009 22:00 21.3 C 86 % 1020.0 hPa 0.0 l/m 1.6 km/h (1 Bft) O 0.00 h 0 W/m 18.9 C 21.3 C 2.6 km/h (1 Bft)
15.07.2009 23:00 20.5 C 90 % 1020.5 hPa 0.0 l/m 0.5 km/h (0 Bft) O 0.00 h 0 W/m 18.7 C 20.5 C 1.5 km/h (1 Bft)
16.07.2009 00:00 19.9 C 92 % 1020.6 hPa 0.0 l/m 0.3 km/h (0 Bft) O 0.00 h 0 W/m 18.6 C 19.9 C 1.1 km/h (0 Bft)
16.07.2009 01:00 19.6 C 94 % 1021.0 hPa 0.0 l/m 0.0 km/h (0 Bft) O 0.00 h 0 W/m 18.6 C 19.6 C 0.4 km/h (0 Bft)
16.07.2009 02:00 19.4 C 95 % 1021.1 hPa 0.0 l/m 0.4 km/h (0 Bft) N 0.00 h 0 W/m 18.6 C 19.4 C 1.6 km/h (1 Bft)
16.07.2009 03:00 19.3 C 96 % 1021.1 hPa 0.0 l/m 0.3 km/h (0 Bft) N 0.00 h 0 W/m 18.7 C 19.3 C 1.3 km/h (1 Bft)
16.07.2009 04:00 19.2 C 97 % 1021.0 hPa 0.0 l/m 0.1 km/h (0 Bft) N 0.00 h 0 W/m 18.7 C 19.2 C 1.0 km/h (0 Bft)
16.07.2009 05:00 19.1 C 97 % 1021.3 hPa 0.0 l/m 0.3 km/h (0 Bft) NW 0.00 h 5 W/m 18.6 C 19.1 C 0.8 km/h (0 Bft)
16.07.2009 06:00 18.9 C 97 % 1021.5 hPa 0.2 l/m 0.3 km/h (0 Bft) NW 0.00 h 12 W/m 18.4 C 18.9 C 1.2 km/h (1 Bft)
16.07.2009 07:00 19.0 C 97 % 1021.4 hPa 0.0 l/m 0.3 km/h (0 Bft) NW 0.00 h 89 W/m 18.5 C 19.0 C 1.1 km/h (0 Bft)
16.07.2009 08:00 20.3 C 95 % 1021.5 hPa 0.0 l/m 0.9 km/h (0 Bft) S 0.63 h 261 W/m 19.4 C 20.3 C 2.5 km/h (1 Bft)
16.07.2009 09:00 21.8 C 86 % 1021.5 hPa 0.0 l/m 1.1 km/h (0 Bft) O-SO 0.22 h 261 W/m 19.3 C 21.8 C 2.4 km/h (1 Bft)
16.07.2009 10:00 23.9 C 77 % 1021.4 hPa 0.0 l/m 2.1 km/h (1 Bft) O-SO 0.73 h 626 W/m 19.7 C 23.9 C 4.6 km/h (1 Bft)
16.07.2009 11:00 24.9 C 73 % 1021.0 hPa 0.0 l/m 2.9 km/h (1 Bft) SO 0.73 h 709 W/m 19.8 C 24.9 C 5.6 km/h (1 Bft)
16.07.2009 12:00 26.0 C 70 % 1020.4 hPa 0.0 l/m 2.1 km/h (1 Bft) NW 0.90 h 822 W/m 20.1 C 26.0 C 4.3 km/h (1 Bft)
16.07.2009 13:00 27.1 C 67 % 1019.8 hPa 0.0 l/m 2.0 km/h (1 Bft) O-SO 1.00 h 841 W/m 20.3 C 27.1 C 4.5 km/h (1 Bft)
16.07.2009 14:00 28.0 C 62 % 1019.0 hPa 0.0 l/m 2.1 km/h (1 Bft) W-NW 1.00 h 817 W/m 20.1 C 28.0 C 4.1 km/h (1 Bft)
16.07.2009 15:00 29.3 C 58 % 1018.3 hPa 0.0 l/m 2.9 km/h (1 Bft) W 1.00 h 748 W/m 20.1 C 29.3 C 5.0 km/h (1 Bft)
16.07.2009 16:00 29.8 C 54 % 1017.7 hPa 0.0 l/m 2.2 km/h (1 Bft) W-NW 1.00 h 639 W/m 19.4 C 29.8 C 4.3 km/h (1 Bft)
16.07.2009 17:00 30.3 C 52 % 1017.1 hPa 0.0 l/m 3.4 km/h (1 Bft) N-NW 1.00 h 495 W/m 19.4 C 30.3 C 5.6 km/h (1 Bft)
16.07.2009 18:00 30.3 C 52 % 1016.5 hPa 0.0 l/m 2.2 km/h (1 Bft) N-NW 1.00 h 346 W/m 19.2 C 30.3 C 4.1 km/h (1 Bft)
16.07.2009 19:00 29.4 C 55 % 1016.0 hPa 0.0 l/m 2.6 km/h (1 Bft) O-SO 1.00 h 189 W/m 19.4 C 29.4 C 4.3 km/h (1 Bft)
16.07.2009 20:00 27.6 C 64 % 1015.5 hPa 0.0 l/m 4.5 km/h (1 Bft) O-SO 0.23 h 52 W/m 20.0 C 27.6 C 6.3 km/h (2 Bft)
16.07.2009 21:00 25.1 C 72 % 1015.0 hPa 0.0 l/m 1.4 km/h (1 Bft) O-SO 0.05 h 9 W/m 19.6 C 25.1 C 2.3 km/h (1 Bft)
16.07.2009 22:00 23.3 C 79 % 1014.3 hPa 0.0 l/m 0.2 km/h (0 Bft) O-SO 0.00 h 0 W/m 19.4 C 23.3 C 0.8 km/h (0 Bft)
16.07.2009 23:00 21.9 C 84 % 1014.1 hPa 0.0 l/m 0.1 km/h (0 Bft) O-SO 0.00 h 0 W/m 19.1 C 21.9 C 0.5 km/h (0 Bft)
17.07.2009 00:00 20.8 C 87 % 1013.0 hPa 0.0 l/m 0.1 km/h (0 Bft) O-SO 0.00 h 0 W/m 18.6 C 20.8 C 0.6 km/h (0 Bft)
17.07.2009 01:00 20.1 C 90 % 1012.1 hPa 0.0 l/m 0.1 km/h (0 Bft) O-SO 0.00 h 0 W/m 18.3 C 20.1 C 0.7 km/h (0 Bft)
17.07.2009 02:00 19.9 C 92 % 1011.4 hPa 0.0 l/m 1.9 km/h (1 Bft) O 0.00 h 0 W/m 18.5 C 19.9 C 3.5 km/h (1 Bft)
17.07.2009 03:00 19.8 C 94 % 1012.5 hPa 2.0 l/m 8.2 km/h (2 Bft) W 0.00 h 0 W/m 18.8 C 19.8 C 13.9 km/h (3 Bft)
17.07.2009 04:00 19.5 C 94 % 1012.9 hPa 2.2 l/m 2.2 km/h (1 Bft) N-NO 0.00 h 0 W/m 18.6 C 19.5 C 4.2 km/h (1 Bft)
17.07.2009 05:00 19.1 C 95 % 1013.6 hPa 2.8 l/m 1.8 km/h (1 Bft) SW 0.00 h 0 W/m 18.4 C 19.1 C 4.7 km/h (1 Bft)
17.07.2009 06:00 18.2 C 95 % 1014.1 hPa 1.8 l/m 2.0 km/h (1 Bft) S-SO 0.00 h 7 W/m 17.4 C 18.2 C 4.0 km/h (1 Bft)
17.07.2009 07:00 17.9 C 96 % 1014.3 hPa 1.0 l/m 1.3 km/h (1 Bft) S-SO 0.00 h 24 W/m 17.3 C 17.9 C 3.7 km/h (1 Bft)
17.07.2009 08:00 17.9 C 97 % 1014.6 hPa 0.2 l/m 1.7 km/h (1 Bft) S-SO 0.00 h 40 W/m 17.4 C 17.9 C 4.4 km/h (1 Bft)
17.07.2009 09:00 18.2 C 97 % 1014.4 hPa 0.2 l/m 1.0 km/h (0 Bft) S 0.00 h 54 W/m 17.7 C 18.2 C 3.2 km/h (1 Bft)
17.07.2009 10:00 18.8 C 97 % 1014.2 hPa 0.4 l/m 1.0 km/h (0 Bft) S-SO 0.00 h 116 W/m 18.4 C 18.8 C 2.9 km/h (1 Bft)
17.07.2009 11:00 18.5 C 96 % 1013.7 hPa 0.8 l/m 1.7 km/h (1 Bft) O-SO 0.00 h 70 W/m 17.8 C 18.5 C 3.8 km/h (1 Bft)
17.07.2009 12:00 18.8 C 96 % 1013.0 hPa 0.2 l/m 0.6 km/h (0 Bft) NO 0.00 h 152 W/m 18.1 C 18.8 C 1.7 km/h (1 Bft)
17.07.2009 13:00 19.6 C 96 % 1012.3 hPa 0.0 l/m 0.1 km/h (0 Bft) NW 0.00 h 127 W/m 18.9 C 19.6 C 0.6 km/h (0 Bft)
17.07.2009 14:00 19.7 C 94 % 1011.2 hPa 0.0 l/m 1.2 km/h (1 Bft) W-NW 0.00 h 95 W/m 18.7 C 19.7 C 3.0 km/h (1 Bft)
17.07.2009 15:00 18.2 C 88 % 1010.7 hPa 0.0 l/m 6.8 km/h (2 Bft) W 0.00 h 69 W/m 16.2 C 18.2 C 11.7 km/h (2 Bft)
17.07.2009 16:00 16.3 C 90 % 1010.5 hPa 3.4 l/m 11.8 km/h (2 Bft) W 0.00 h 28 W/m 14.6 C 16.3 C 19.0 km/h (3 Bft)
17.07.2009 17:00 14.5 C 93 % 1011.3 hPa 4.4 l/m 14.5 km/h (3 Bft) W 0.00 h 21 W/m 13.4 C 14.5 C 22.7 km/h (4 Bft)
17.07.2009 18:00 13.4 C 96 % 1012.3 hPa 3.8 l/m 13.7 km/h (3 Bft) W 0.00 h 12 W/m 12.8 C 13.4 C 21.5 km/h (4 Bft)
17.07.2009 19:00 13.2 C 97 % 1012.9 hPa 3.2 l/m 3.1 km/h (1 Bft) W 0.00 h 8 W/m 12.7 C 13.2 C 5.9 km/h (2 Bft)
17.07.2009 20:00 12.9 C 97 % 1013.5 hPa 3.0 l/m 0.1 km/h (0 Bft) S-SW 0.00 h 5 W/m 12.5 C 12.9 C 0.9 km/h (0 Bft)
17.07.2009 21:00 13.1 C 98 % 1014.1 hPa 1.4 l/m 1.6 km/h (1 Bft) SO 0.00 h 0 W/m 12.8 C 13.1 C 3.3 km/h (1 Bft)
17.07.2009 22:00 13.3 C 99 % 1014.3 hPa 1.8 l/m 0.0 km/h (0 Bft) W-NW 0.00 h 0 W/m 13.0 C 13.3 C 0.1 km/h (0 Bft)
17.07.2009 23:00 13.3 C 99 % 1013.9 hPa 2.0 l/m 1.1 km/h (1 Bft) SO 0.00 h 0 W/m 13.1 C 13.3 C 2.3 km/h (1 Bft)
18.07.2009 00:00 13.1 C 99 % 1013.9 hPa 2.8 l/m 0.3 km/h (0 Bft) S-SO 0.00 h 0 W/m 13.0 C 13.1 C 1.3 km/h (1 Bft)
18.07.2009 01:00 12.9 C 99 % 1014.5 hPa 2.2 l/m 3.0 km/h (1 Bft) S-SO 0.00 h 0 W/m 12.8 C 12.9 C 6.2 km/h (2 Bft)
18.07.2009 02:00 12.7 C 99 % 1014.4 hPa 1.0 l/m 2.0 km/h (1 Bft) W-SW 0.00 h 0 W/m 12.5 C 12.7 C 5.5 km/h (1 Bft)
18.07.2009 03:00 12.5 C 99 % 1014.3 hPa 0.4 l/m 2.1 km/h (1 Bft) S-SO 0.00 h 0 W/m 12.4 C 12.5 C 4.9 km/h (1 Bft)
18.07.2009 04:00 11.9 C 99 % 1014.4 hPa 0.2 l/m 3.1 km/h (1 Bft) S 0.00 h 0 W/m 11.7 C 11.9 C 6.7 km/h (2 Bft)
18.07.2009 05:00 11.7 C 99 % 1014.4 hPa 0.0 l/m 2.5 km/h (1 Bft) S 0.00 h 0 W/m 11.6 C 11.7 C 5.7 km/h (1 Bft)
18.07.2009 06:00 11.8 C 99 % 1014.5 hPa 0.0 l/m 2.0 km/h (1 Bft) W-SW 0.00 h 13 W/m 11.6 C 11.8 C 5.3 km/h (1 Bft)
18.07.2009 07:00 11.9 C 99 % 1013.9 hPa 0.0 l/m 1.4 km/h (1 Bft) W-SW 0.00 h 43 W/m 11.8 C 11.9 C 3.9 km/h (1 Bft)
18.07.2009 08:00 12.3 C 99 % 1014.5 hPa 0.2 l/m 2.2 km/h (1 Bft) W-SW 0.00 h 57 W/m 12.1 C 12.3 C 5.2 km/h (1 Bft)
18.07.2009 09:00 12.6 C 99 % 1014.3 hPa 0.0 l/m 2.8 km/h (1 Bft) W 0.00 h 101 W/m 12.5 C 12.6 C 5.6 km/h (1 Bft)
18.07.2009 10:00 13.1 C 99 % 1014.3 hPa 0.4 l/m 5.0 km/h (1 Bft) W 0.00 h 124 W/m 12.9 C 13.1 C 8.8 km/h (2 Bft)
18.07.2009 11:00 13.0 C 99 % 1014.9 hPa 0.6 l/m 12.2 km/h (2 Bft) W 0.00 h 150 W/m 12.8 C 13.0 C 20.5 km/h (4 Bft)
18.07.2009 12:00 13.2 C 98 % 1015.5 hPa 1.4 l/m 14.5 km/h (3 Bft) W 0.00 h 220 W/m 12.9 C 13.2 C 23.7 km/h (4 Bft)
18.07.2009 13:00 13.0 C 98 % 1016.5 hPa 1.4 l/m 13.2 km/h (3 Bft) W 0.00 h 164 W/m 12.7 C 13.0 C 20.5 km/h (4 Bft)
18.07.2009 14:00 14.0 C 95 % 1016.5 hPa 0.0 l/m 18.0 km/h (3 Bft) W 0.52 h 658 W/m 13.2 C 14.0 C 28.1 km/h (4 Bft)
18.07.2009 15:00 15.5 C 85 % 1016.6 hPa 0.0 l/m 14.6 km/h (3 Bft) W 0.65 h 612 W/m 13.0 C 15.5 C 23.7 km/h (4 Bft)
18.07.2009 16:00 16.7 C 75 % 1016.9 hPa 0.0 l/m 15.7 km/h (3 Bft) W 0.82 h 682 W/m 12.2 C 16.7 C 25.2 km/h (4 Bft)
18.07.2009 17:00 17.0 C 72 % 1017.3 hPa 0.0 l/m 12.7 km/h (3 Bft) W 0.83 h 550 W/m 11.9 C 17.0 C 20.4 km/h (4 Bft)
18.07.2009 18:00 17.5 C 69 % 1017.2 hPa 0.0 l/m 9.7 km/h (2 Bft) W-NW 0.37 h 266 W/m 11.7 C 17.5 C 15.8 km/h (3 Bft)
18.07.2009 19:00 17.1 C 70 % 1017.4 hPa 0.0 l/m 6.4 km/h (2 Bft) W 0.62 h 166 W/m 11.6 C 17.1 C 10.7 km/h (2 Bft)
18.07.2009 20:00 16.5 C 71 % 1017.8 hPa 0.0 l/m 3.9 km/h (1 Bft) W 0.27 h 46 W/m 11.3 C 16.5 C 7.1 km/h (2 Bft)
18.07.2009 21:00 15.2 C 72 % 1018.3 hPa 0.0 l/m 2.1 km/h (1 Bft) W-SW 0.03 h 8 W/m 10.1 C 15.2 C 4.5 km/h (1 Bft)
18.07.2009 22:00 14.2 C 78 % 1018.8 hPa 0.0 l/m 1.3 km/h (1 Bft) S-SO 0.00 h 0 W/m 10.5 C 14.2 C 3.2 km/h (1 Bft)
18.07.2009 23:00 13.5 C 82 % 1019.1 hPa 0.0 l/m 0.9 km/h (0 Bft) SO 0.00 h 0 W/m 10.5 C 13.5 C 2.4 km/h (1 Bft)
19.07.2009 00:00 12.6 C 86 % 1019.5 hPa 0.0 l/m 2.7 km/h (1 Bft) SO 0.00 h 0 W/m 10.3 C 12.6 C 3.8 km/h (1 Bft)
19.07.2009 01:00 11.8 C 89 % 1019.3 hPa 0.0 l/m 0.7 km/h (0 Bft) O-SO 0.00 h 0 W/m 10.0 C 11.8 C 1.3 km/h (1 Bft)
19.07.2009 02:00 11.2 C 91 % 1019.0 hPa 0.0 l/m 0.3 km/h (0 Bft) O-SO 0.00 h 0 W/m 9.8 C 11.2 C 0.8 km/h (0 Bft)
19.07.2009 03:00 11.3 C 93 % 1018.5 hPa 0.0 l/m 0.0 km/h (0 Bft) N 0.00 h 0 W/m 10.2 C 11.3 C 0.0 km/h (0 Bft)
19.07.2009 04:00 11.4 C 94 % 1018.2 hPa 0.0 l/m 0.1 km/h (0 Bft) O-SO 0.00 h 0 W/m 10.5 C 11.4 C 0.4 km/h (0 Bft)
19.07.2009 05:00 11.6 C 95 % 1018.1 hPa 0.2 l/m 0.2 km/h (0 Bft) SW 0.00 h 0 W/m 10.8 C 11.6 C 0.9 km/h (0 Bft)
19.07.2009 06:00 11.8 C 96 % 1018.2 hPa 0.0 l/m 0.5 km/h (0 Bft) SO 0.00 h 22 W/m 11.2 C 11.8 C 1.7 km/h (1 Bft)
19.07.2009 07:00 12.4 C 96 % 1018.7 hPa 0.0 l/m 0.5 km/h (0 Bft) W 0.02 h 66 W/m 11.7 C 12.4 C 1.8 km/h (1 Bft)
19.07.2009 08:00 13.3 C 94 % 1018.8 hPa 0.0 l/m 0.5 km/h (0 Bft) O-SO 0.00 h 149 W/m 12.4 C 13.3 C 1.9 km/h (1 Bft)
19.07.2009 09:00 14.7 C 87 % 1018.9 hPa 0.0 l/m 2.8 km/h (1 Bft) S-SW 0.02 h 212 W/m 12.6 C 14.7 C 6.7 km/h (2 Bft)
19.07.2009 10:00 16.9 C 77 % 1018.7 hPa 0.0 l/m 4.8 km/h (1 Bft) W-SW 0.25 h 277 W/m 12.8 C 16.9 C 10.4 km/h (2 Bft)
19.07.2009 11:00 16.0 C 81 % 1019.3 hPa 0.0 l/m 8.7 km/h (2 Bft) W 0.00 h 273 W/m 12.7 C 16.0 C 14.9 km/h (3 Bft)
19.07.2009 12:00 17.4 C 81 % 1019.4 hPa 0.0 l/m 3.4 km/h (1 Bft) W-SW 0.37 h 418 W/m 14.1 C 17.4 C 6.5 km/h (2 Bft)
19.07.2009 13:00 18.5 C 72 % 1019.1 hPa 0.0 l/m 5.7 km/h (1 Bft) W 0.17 h 473 W/m 13.4 C 18.5 C 9.5 km/h (2 Bft)
19.07.2009 14:00 19.9 C 61 % 1018.7 hPa 0.2 l/m 11.1 km/h (2 Bft) W 0.48 h 484 W/m 12.2 C 19.9 C 17.3 km/h (3 Bft)
19.07.2009 15:00 20.6 C 60 % 1018.7 hPa 0.0 l/m 10.5 km/h (2 Bft) W 0.78 h 681 W/m 12.6 C 20.6 C 16.6 km/h (3 Bft)
19.07.2009 16:00 21.3 C 58 % 1018.5 hPa 0.0 l/m 14.1 km/h (3 Bft) W-NW 0.97 h 668 W/m 12.6 C 21.3 C 21.4 km/h (4 Bft)
19.07.2009 17:00 21.4 C 54 % 1018.5 hPa 0.0 l/m 13.7 km/h (3 Bft) W-NW 0.98 h 538 W/m 11.6 C 21.4 C 21.5 km/h (4 Bft)
19.07.2009 18:00 21.2 C 49 % 1018.5 hPa 0.0 l/m 14.5 km/h (3 Bft) W 1.00 h 360 W/m 10.2 C 21.2 C 22.4 km/h (4 Bft)
19.07.2009 19:00 20.9 C 48 % 1018.7 hPa 0.0 l/m 13.3 km/h (3 Bft) W 1.00 h 197 W/m 9.4 C 20.9 C 21.2 km/h (4 Bft)
19.07.2009 20:00 19.6 C 52 % 1019.1 hPa 0.0 l/m 9.0 km/h (2 Bft) W-NW 0.70 h 61 W/m 9.5 C 19.6 C 13.6 km/h (3 Bft)
19.07.2009 21:00 18.2 C 58 % 1019.3 hPa 0.0 l/m 4.8 km/h (1 Bft) W-NW 0.10 h 10 W/m 9.7 C 18.2 C 7.2 km/h (2 Bft)
19.07.2009 22:00 16.9 C 66 % 1019.7 hPa 0.0 l/m 0.3 km/h (0 Bft) W-NW 0.00 h 0 W/m 10.5 C 16.9 C 1.0 km/h (0 Bft)
19.07.2009 23:00 14.9 C 77 % 1020.3 hPa 0.0 l/m 3.9 km/h (1 Bft) O-SO 0.00 h 0 W/m 10.9 C 14.9 C 5.3 km/h (1 Bft)
Min-Datum _ 19.07.09 19.07.09 14.07.09 - 13.07.09 - - - 19.07.09 19.07.09 13.07.09
_ Min-Zeit 02:24 18:12 01:15 - 00:01 - - - 19:49 02:24 00:01
Minimum _ 11.1 C 46 % 1009.6 hPa - 0.0 km/h (0 Bft) - - - 8.6 C 11.1 C 0.0 km/h (0 Bft)
Max-Datum _ 16.07.09 15.07.09 16.07.09 14.07.09 14.07.09 - 13.07.09 19.07.09 16.07.09 16.07.09 18.07.09
_ Max-Zeit 17:38 06:33 06:00 22:04 21:58 - 07:50 13:52 13:57 17:38 16:18
Maximum _ 30.8 C 100 % 1021.6 hPa 16.0 l/m 31.3 km/h
W (5 Bft)
- 0.02 h 1171 W/m 22.1 C 30.8 C 50.4 km/h
W (7 Bft)
Durchschnitt _ 19.5 C 83 % 1015.6 hPa #102.8 l/m 3.1 km/h (1 Bft) O-SO #37:04 h 267 W/m 16.1 C 19.5 C 5.7 km/h (1 Bft)
© Kaiko 2009